Time,TemperatureF,DewpointF,PressureIn,WindDirection,WindDirectionDegrees,WindSpeedMPH,WindSpeedGustMPH,Humidity,HourlyPrecipIn,Conditions,Clouds,dailyrainin,SoftwareType,DateUTC
2013-02-20 00:05:00,28.6,18.3,29.73,NW,315,0.0,5.1,65,0.00,,,0.00,WUHU21623XXSP,2013-02-20 08:05:00,
2013-02-20 00:12:00,28.2,18.1,29.74,NNW,337,0.0,0.0,65,0.00,,,0.00,WUHU21623XXSP,2013-02-20 08:12:00,
2013-02-20 00:27:00,28.0,18.1,29.74,NNW,337,1.6,1.6,66,0.00,,,0.00,WUHU21623XXSP,2013-02-20 08:27:00,
2013-02-20 00:58:00,27.3,17.4,29.75,North,0,2.0,2.0,66,0.00,,,0.00,WUHU21623XXSP,2013-02-20 08:58:00,
2013-02-20 01:03:00,27.3,17.4,29.75,North,0,2.0,2.0,66,0.00,,,0.00,WUHU21623XXSP,2013-02-20 09:03:00,
2013-02-20 01:40:00,27.7,17.8,29.77,NNW,337,3.1,3.1,66,0.00,,,0.00,WUHU21623XXSP,2013-02-20 09:40:00,
2013-02-20 01:55:00,28.0,18.1,29.78,NNW,337,1.6,1.6,66,0.00,,,0.00,WUHU21623XXSP,2013-02-20 09:55:00,
2013-02-20 02:00:00,28.0,18.1,29.78,NNW,337,1.6,1.6,66,0.00,,,0.00,WUHU21623XXSP,2013-02-20 10:00:00,
2013-02-20 02:05:00,28.2,18.3,29.78,NNW,337,5.4,5.4,66,0.00,,,0.00,WUHU21623XXSP,2013-02-20 10:05:00,
2013-02-20 02:21:00,28.2,18.0,29.79,NNW,337,0.0,0.0,65,0.00,,,0.00,WUHU21623XXSP,2013-02-20 10:21:00,
2013-02-20 02:36:00,28.2,18.0,29.79,West,270,0.0,0.0,65,0.00,,,0.00,WUHU21623XXSP,2013-02-20 10:36:00,
2013-02-20 02:41:00,28.2,18.0,29.79,North,0,2.5,2.5,65,0.00,,,0.00,WUHU21623XXSP,2013-02-20 10:41:00,
2013-02-20 02:49:00,28.4,18.1,29.80,WNW,292,6.9,6.9,65,0.00,,,0.00,WUHU21623XXSP,2013-02-20 10:49:00,
2013-02-20 02:54:00,28.4,18.1,29.79,NNW,337,4.5,6.9,65,0.00,,,0.00,WUHU21623XXSP,2013-02-20 10:54:00,
2013-02-20 02:59:00,28.6,18.3,29.80,NNW,337,4.9,4.9,65,0.00,,,0.00,WUHU21623XXSP,2013-02-20 10:59:00,
2013-02-20 03:04:00,28.6,18.3,29.80,NNW,337,4.9,4.9,65,0.00,,,0.00,WUHU21623XXSP,2013-02-20 11:04:00,
2013-02-20 03:10:00,28.6,18.7,29.80,NNE,22,0.0,0.0,66,0.00,,,0.00,WUHU21623XXSP,2013-02-20 11:10:00,
2013-02-20 03:17:00,28.6,18.3,29.81,North,0,0.9,0.9,65,0.00,,,0.00,WUHU21623XXSP,2013-02-20 11:17:00,
2013-02-20 03:29:00,28.6,18.7,29.81,NNW,337,2.2,2.2,66,0.00,,,0.00,WUHU21623XXSP,2013-02-20 11:29:00,
2013-02-20 03:36:00,28.6,18.3,29.81,WNW,292,1.6,2.2,65,0.00,,,0.00,WUHU21623XXSP,2013-02-20 11:36:00,
2013-02-20 03:42:00,28.6,18.3,29.81,WNW,292,0.0,1.6,65,0.00,,,0.00,WUHU21623XXSP,2013-02-20 11:42:00,
2013-02-20 03:47:00,28.6,18.3,29.81,WNW,292,1.6,1.6,65,0.00,,,0.00,WUHU21623XXSP,2013-02-20 11:47:00,
2013-02-20 03:58:00,28.6,18.3,29.81,NW,315,0.0,0.0,65,0.00,,,0.00,WUHU21623XXSP,2013-02-20 11:58:00,
2013-02-20 04:03:00,28.6,18.3,29.81,NW,315,0.0,0.0,65,0.00,,,0.00,WUHU21623XXSP,2013-02-20 12:03:00,
2013-02-20 04:14:00,28.2,17.6,29.82,NNE,22,0.0,0.0,64,0.00,,,0.00,WUHU21623XXSP,2013-02-20 12:14:00,
2013-02-20 04:34:00,27.3,16.3,29.83,WNW,292,0.0,0.0,63,0.00,,,0.00,WUHU21623XXSP,2013-02-20 12:34:00,
2013-02-20 04:39:00,27.1,16.2,29.83,NW,315,0.0,0.0,63,0.00,,,0.00,WUHU21623XXSP,2013-02-20 12:39:00,
2013-02-20 04:58:00,26.8,16.2,29.84,NW,315,1.6,1.6,64,0.00,,,0.00,WUHU21623XXSP,2013-02-20 12:58:00,
2013-02-20 05:03:00,26.8,16.2,29.84,NW,315,1.6,1.6,64,0.00,,,0.00,WUHU21623XXSP,2013-02-20 13:03:00,
2013-02-20 05:24:00,26.6,16.7,29.85,NE,45,3.8,3.8,66,0.00,,,0.00,WUHU21623XXSP,2013-02-20 13:24:00,
2013-02-20 05:55:00,26.8,16.9,29.86,WNW,292,0.7,0.7,66,0.00,,,0.00,WUHU21623XXSP,2013-02-20 13:55:00,
2013-02-20 06:00:00,26.8,16.9,29.86,WNW,292,0.7,0.7,66,0.00,,,0.00,WUHU21623XXSP,2013-02-20 14:00:00,
2013-02-20 06:05:00,26.6,16.3,29.86,WNW,292,0.0,0.7,65,0.00,,,0.00,WUHU21623XXSP,2013-02-20 14:05:00,
2013-02-20 06:21:00,26.2,15.6,29.86,NNW,337,0.0,0.0,64,0.00,,,0.00,WUHU21623XXSP,2013-02-20 14:21:00,
2013-02-20 06:51:00,25.0,14.4,29.88,West,270,0.0,0.0,64,0.00,,,0.00,WUHU21623XXSP,2013-02-20 14:51:00,
2013-02-20 06:56:00,24.6,14.3,29.88,WNW,292,0.0,0.0,64,0.00,,,0.00,WUHU21623XXSP,2013-02-20 14:56:00,
2013-02-20 07:01:00,24.6,14.1,29.88,South,180,0.0,0.0,64,0.00,,,0.00,WUHU21623XXSP,2013-02-20 15:01:00,
2013-02-20 07:06:00,24.4,13.9,29.89,ENE,67,0.0,0.0,64,0.00,,,0.00,WUHU21623XXSP,2013-02-20 15:06:00,
2013-02-20 07:16:00,23.9,13.4,29.89,NE,45,0.0,0.0,64,0.00,,,0.00,WUHU21623XXSP,2013-02-20 15:16:00,
2013-02-20 07:40:00,23.7,13.1,29.91,NE,45,0.0,0.0,64,0.00,,,0.00,WUHU21623XXSP,2013-02-20 15:40:00,
2013-02-20 07:51:00,23.9,13.8,29.91,NW,315,0.0,0.0,65,0.00,,,0.00,WUHU21623XXSP,2013-02-20 15:51:00,
2013-02-20 08:01:00,25.0,15.1,29.91,WNW,292,0.0,0.0,66,0.00,,,0.00,WUHU21623XXSP,2013-02-20 16:01:00,
2013-02-20 08:14:00,27.0,17.8,29.91,WNW,292,0.0,0.0,68,0.00,,,0.00,WUHU21623XXSP,2013-02-20 16:14:00,
2013-02-20 08:44:00,32.2,21.7,29.92,WNW,292,2.5,2.5,65,0.00,,,0.00,WUHU21623XXSP,2013-02-20 16:44:00,
2013-02-20 09:46:00,36.3,20.8,29.93,WNW,292,4.3,4.3,53,0.00,,,0.00,WUHU21623XXSP,2013-02-20 17:46:00,
2013-02-20 10:01:00,36.1,20.2,29.94,WNW,292,8.9,8.9,52,0.00,,,0.00,WUHU21623XXSP,2013-02-20 18:01:00,
2013-02-20 10:27:00,36.9,20.0,29.93,NW,315,5.6,5.6,50,0.00,,,0.00,WUHU21623XXSP,2013-02-20 18:27:00,
2013-02-20 10:44:00,37.8,19.8,29.94,NW,315,3.6,3.6,48,0.00,,,0.00,WUHU21623XXSP,2013-02-20 18:44:00,
2013-02-20 11:06:00,39.4,19.9,29.94,NW,315,2.0,2.0,46,0.00,,,0.00,WUHU21623XXSP,2013-02-20 19:06:00,
2013-02-20 11:16:00,39.9,20.1,29.93,North,0,0.0,0.0,45,0.00,,,0.00,WUHU21623XXSP,2013-02-20 19:16:00,
2013-02-20 11:42:00,43.7,22.5,29.93,West,270,1.6,1.6,43,0.00,,,0.00,WUHU21623XXSP,2013-02-20 19:42:00,
2013-02-20 11:48:00,44.6,22.3,29.93,North,0,4.5,4.5,41,0.00,,,0.00,WUHU21623XXSP,2013-02-20 19:48:00,
2013-02-20 12:20:00,45.5,19.9,29.92,WNW,292,6.7,6.7,36,0.00,,,0.00,WUHU21623XXSP,2013-02-20 20:20:00,
2013-02-20 12:53:00,46.8,19.0,29.91,NW,315,8.3,8.3,32,0.00,,,0.00,WUHU21623XXSP,2013-02-20 20:53:00,
2013-02-20 12:58:00,46.6,18.9,29.91,NW,315,0.0,8.3,33,0.00,,,0.00,WUHU21623XXSP,2013-02-20 20:58:00,
2013-02-20 13:23:00,46.9,17.9,29.91,West,270,4.0,4.0,31,0.00,,,0.00,WUHU21623XXSP,2013-02-20 21:23:00,
2013-02-20 13:33:00,47.1,18.0,29.91,WNW,292,0.0,0.0,31,0.00,,,0.00,WUHU21623XXSP,2013-02-20 21:33:00,
2013-02-20 13:40:00,46.9,17.2,29.91,NW,315,5.1,5.1,30,0.00,,,0.00,WUHU21623XXSP,2013-02-20 21:40:00,
2013-02-20 13:45:00,46.6,16.9,29.91,WNW,292,8.9,8.9,30,0.00,,,0.00,WUHU21623XXSP,2013-02-20 21:45:00,
2013-02-20 13:50:00,46.6,16.9,29.90,SE,135,3.1,8.9,30,0.00,,,0.00,WUHU21623XXSP,2013-02-20 21:50:00,
2013-02-20 13:57:00,46.9,17.9,29.90,WNW,292,3.1,3.1,31,0.00,,,0.00,WUHU21623XXSP,2013-02-20 21:57:00,
2013-02-20 14:02:00,47.3,18.2,29.90,South,180,0.9,3.1,31,0.00,,,0.00,WUHU21623XXSP,2013-02-20 22:02:00,
2013-02-20 14:07:00,47.8,18.7,29.90,West,270,0.0,0.9,31,0.00,,,0.00,WUHU21623XXSP,2013-02-20 22:07:00,
2013-02-20 14:13:00,48.0,18.8,29.90,WNW,292,5.1,5.1,31,0.00,,,0.00,WUHU21623XXSP,2013-02-20 22:13:00,
2013-02-20 14:18:00,48.2,18.3,29.89,West,270,1.6,5.1,30,0.00,,,0.00,WUHU21623XXSP,2013-02-20 22:18:00,
2013-02-20 14:35:00,46.8,17.0,29.89,ENE,67,0.0,0.0,30,0.00,,,0.00,WUHU21623XXSP,2013-02-20 22:35:00,
2013-02-20 14:42:00,46.0,15.6,29.90,WNW,292,3.8,3.8,29,0.00,,,0.00,WUHU21623XXSP,2013-02-20 22:42:00,
2013-02-20 14:47:00,45.9,15.3,29.89,WNW,292,3.8,3.8,29,0.00,,,0.00,WUHU21623XXSP,2013-02-20 22:47:00,
2013-02-20 14:59:00,45.1,14.6,29.89,NNW,337,2.2,2.2,29,0.00,,,0.00,WUHU21623XXSP,2013-02-20 22:59:00,
2013-02-20 15:18:00,43.9,13.9,29.89,WNW,292,0.0,0.0,29,0.00,,,0.00,WUHU21623XXSP,2013-02-20 23:18:00,
2013-02-20 15:33:00,43.9,11.6,29.90,WNW,292,3.8,3.8,27,0.00,,,0.00,WUHU21623XXSP,2013-02-20 23:33:00,
2013-02-20 15:55:00,43.3,12.1,29.90,NW,315,3.8,3.8,28,0.00,,,0.00,WUHU21623XXSP,2013-02-20 23:55:00,
2013-02-20 16:00:00,43.2,12.0,29.90,WNW,292,5.8,5.8,28,0.00,,,0.00,WUHU21623XXSP,2013-02-21 00:00:00,
2013-02-20 16:14:00,42.4,11.4,29.90,NW,315,4.5,4.5,28,0.00,,,0.00,WUHU21623XXSP,2013-02-21 00:14:00,
2013-02-20 16:22:00,42.1,11.1,29.90,North,0,4.0,4.5,28,0.00,,,0.00,WUHU21623XXSP,2013-02-21 00:22:00,
2013-02-20 16:38:00,41.5,10.7,29.91,NW,315,2.2,2.2,28,0.00,,,0.00,WUHU21623XXSP,2013-02-21 00:38:00,
2013-02-20 16:50:00,41.0,11.1,29.91,NW,315,7.8,7.8,29,0.00,,,0.00,WUHU21623XXSP,2013-02-21 00:50:00,
2013-02-20 17:07:00,40.5,12.2,29.91,NW,315,6.5,6.5,31,0.00,,,0.00,WUHU21623XXSP,2013-02-21 01:07:00,
2013-02-20 17:22:00,39.7,12.2,29.91,WNW,292,0.0,0.0,32,0.00,,,0.00,WUHU21623XXSP,2013-02-21 01:22:00,
2013-02-20 17:31:00,39.4,11.9,29.92,WNW,292,3.6,3.6,32,0.00,,,0.00,WUHU21623XXSP,2013-02-21 01:31:00,
2013-02-20 17:48:00,38.1,11.4,29.92,North,0,0.0,0.0,33,0.00,,,0.00,WUHU21623XXSP,2013-02-21 01:48:00,
2013-02-20 17:53:00,37.8,11.2,29.92,NW,315,2.5,2.5,33,0.00,,,0.00,WUHU21623XXSP,2013-02-21 01:53:00,
2013-02-20 18:35:00,35.4,9.6,29.92,NNW,337,0.0,0.0,34,0.00,,,0.00,WUHU21623XXSP,2013-02-21 02:35:00,
2013-02-20 18:58:00,34.3,9.5,29.93,NNW,337,1.1,1.1,35,0.00,,,0.00,WUHU21623XXSP,2013-02-21 02:58:00,
2013-02-20 19:08:00,34.2,9.2,29.93,NNE,22,2.0,2.0,35,0.00,,,0.00,WUHU21623XXSP,2013-02-21 03:08:00,
2013-02-20 20:05:00,33.8,10.8,29.93,North,0,6.7,6.7,38,0.00,,,0.00,WUHU21623XXSP,2013-02-21 04:05:00,
2013-02-20 20:25:00,33.3,10.3,29.94,NNW,337,2.5,2.5,38,0.00,,,0.00,WUHU21623XXSP,2013-02-21 04:25:00,
2013-02-20 21:56:00,31.8,10.7,29.96,SSE,157,0.0,0.0,41,0.00,,,0.00,WUHU21623XXSP,2013-02-21 05:56:00,
2013-02-20 21:57:00,31.8,10.7,29.96,SSE,157,0.0,0.0,41,0.00,,,0.00,WUHU21623XXSP,2013-02-21 05:57:00,
2013-02-20 21:59:00,31.8,10.7,29.96,SSE,157,0.0,0.0,41,0.00,,,0.00,WUHU21623XXSP,2013-02-21 05:59:00,
2013-02-20 22:24:00,30.9,9.9,29.96,North,0,0.0,0.0,41,0.00,,,0.00,WUHU21623XXSP,2013-02-21 06:24:00,
2013-02-20 22:37:00,30.6,9.6,29.97,ENE,67,0.0,0.0,41,0.00,,,0.00,WUHU21623XXSP,2013-02-21 06:37:00,
2013-02-20 23:11:00,29.1,8.3,29.96,ENE,67,0.0,0.0,41,0.00,,,0.00,WUHU21623XXSP,2013-02-21 07:11:00,
2013-02-20 23:35:00,28.0,7.8,29.95,South,180,0.0,0.0,42,0.00,,,0.00,WUHU21623XXSP,2013-02-21 07:35:00,
2013-02-20 23:58:00,26.4,6.3,29.94,SE,135,0.0,0.0,42,0.00,,,0.00,WUHU21623XXSP,2013-02-21 07:58:00,